createdAt,value
2017-08-02T00:04:48.955Z,15.40
2017-08-02T00:07:18.766Z,15.30
2017-08-02T00:09:53.930Z,15.30
2017-08-02T00:12:22.690Z,15.30
2017-08-02T00:14:51.156Z,15.30
2017-08-02T00:17:30.555Z,15.30
2017-08-02T00:19:59.080Z,15.20
2017-08-02T00:22:27.762Z,15.20
2017-08-02T00:24:56.732Z,15.10
2017-08-02T00:27:25.274Z,15.10
2017-08-02T00:29:54.586Z,15.10
2017-08-02T00:32:24.034Z,15.10
2017-08-02T00:34:52.525Z,15.00
2017-08-02T00:37:21.152Z,15.10
2017-08-02T00:39:49.762Z,15.10
2017-08-02T00:42:18.267Z,15.10
2017-08-02T00:44:46.821Z,15.10
2017-08-02T00:47:15.419Z,15.10
2017-08-02T00:49:43.972Z,15.00
2017-08-02T00:52:12.617Z,15.00
2017-08-02T00:54:41.164Z,15.00
2017-08-02T00:57:09.702Z,15.00
2017-08-02T00:59:38.314Z,14.90
2017-08-02T01:02:06.843Z,15.00
2017-08-02T01:04:35.309Z,14.90
2017-08-02T01:07:03.759Z,14.90
2017-08-02T01:09:32.248Z,14.90
2017-08-02T01:12:00.779Z,15.00
2017-08-02T01:14:29.388Z,14.90
2017-08-02T01:17:03.729Z,14.90
2017-08-02T01:19:32.242Z,14.90
2017-08-02T01:22:00.736Z,14.90
2017-08-02T01:24:31.922Z,14.80
2017-08-02T01:27:00.991Z,14.80
2017-08-02T01:29:29.467Z,14.80
2017-08-02T01:31:57.934Z,14.80
2017-08-02T01:34:26.366Z,14.80
2017-08-02T01:36:54.813Z,14.80
2017-08-02T01:39:23.366Z,14.80
2017-08-02T01:41:52.696Z,14.80
2017-08-02T01:44:21.227Z,14.90
2017-08-02T01:46:49.839Z,14.90
2017-08-02T01:49:26.618Z,14.90
2017-08-02T01:51:55.263Z,14.90
2017-08-02T01:54:23.802Z,14.90
2017-08-02T01:56:52.917Z,15.00
2017-08-02T01:59:21.334Z,15.00
2017-08-02T02:01:50.514Z,15.10
2017-08-02T02:04:19.114Z,15.30
2017-08-02T02:06:47.666Z,15.30
2017-08-02T02:09:17.192Z,15.30
2017-08-02T02:11:46.582Z,15.40
2017-08-02T02:14:16.068Z,15.40
2017-08-02T02:16:44.689Z,15.50
2017-08-02T02:19:14.356Z,15.50
2017-08-02T02:21:42.871Z,15.60
2017-08-02T02:24:12.354Z,15.60
2017-08-02T02:26:41.058Z,15.60
2017-08-02T02:29:09.648Z,15.50
2017-08-02T02:31:38.110Z,15.60
2017-08-02T02:34:07.417Z,15.60
2017-08-02T02:36:35.886Z,15.60
2017-08-02T02:39:03.426Z,15.60
2017-08-02T02:41:32.586Z,15.60
2017-08-02T02:44:01.826Z,15.70
2017-08-02T02:46:30.227Z,15.70
2017-08-02T02:48:58.805Z,15.80
2017-08-02T02:51:28.448Z,15.80
2017-08-02T02:53:56.980Z,15.80
2017-08-02T02:56:25.591Z,15.80
2017-08-02T02:58:55.166Z,15.80
2017-08-02T03:01:30.345Z,15.80
2017-08-02T03:03:59.582Z,15.80
2017-08-02T03:06:29.227Z,15.90
2017-08-02T03:08:58.638Z,15.90
2017-08-02T03:11:28.493Z,15.90
2017-08-02T03:13:58.005Z,15.90
2017-08-02T03:16:27.617Z,15.90
2017-08-02T03:18:56.359Z,15.90
2017-08-02T03:21:26.315Z,16.00
2017-08-02T03:23:57.819Z,16.10
2017-08-02T03:26:26.958Z,16.10
2017-08-02T03:28:55.414Z,16.20
2017-08-02T03:31:26.185Z,16.10
2017-08-02T03:33:56.968Z,16.20
2017-08-02T03:36:26.432Z,16.20
2017-08-02T03:38:55.174Z,16.20
2017-08-02T03:41:26.027Z,16.00
2017-08-02T03:43:56.458Z,15.90
2017-08-02T03:46:25.102Z,15.80
2017-08-02T03:48:53.767Z,15.80
2017-08-02T03:51:22.516Z,15.70
2017-08-02T03:53:51.912Z,15.70
2017-08-02T03:56:21.867Z,15.70
2017-08-02T03:58:51.885Z,15.70
2017-08-02T04:01:26.803Z,15.60
2017-08-02T04:03:56.197Z,15.60
2017-08-02T04:06:26.298Z,15.50
2017-08-02T04:08:54.986Z,15.60
2017-08-02T04:11:23.711Z,15.70
2017-08-02T04:13:53.971Z,15.70
2017-08-02T04:16:23.663Z,15.70
2017-08-02T04:18:53.521Z,15.80
2017-08-02T04:21:23.147Z,16.00
2017-08-02T04:23:54.905Z,16.20
2017-08-02T04:26:27.351Z,16.40
2017-08-02T04:29:01.006Z,16.70
2017-08-02T04:31:29.447Z,17.00
2017-08-02T04:34:00.834Z,17.20
2017-08-02T04:36:30.758Z,17.30
2017-08-02T04:38:59.166Z,17.50
2017-08-02T04:41:31.040Z,17.60
2017-08-02T04:44:03.215Z,17.70
2017-08-02T04:46:31.699Z,17.80
2017-08-02T04:49:02.120Z,17.90
2017-08-02T04:51:32.100Z,18.00
2017-08-02T04:54:04.290Z,18.00
2017-08-02T04:56:33.095Z,18.10
2017-08-02T04:59:02.871Z,18.20
2017-08-02T05:01:32.383Z,18.30
2017-08-02T05:04:01.371Z,18.40
2017-08-02T05:06:29.837Z,18.40
2017-08-02T05:08:59.851Z,18.50
2017-08-02T05:11:32.131Z,18.50
2017-08-02T05:14:03.632Z,18.50
2017-08-02T05:16:32.876Z,18.50
2017-08-02T05:19:02.372Z,18.60
2017-08-02T05:21:33.155Z,18.60
2017-08-02T05:24:02.502Z,18.60
2017-08-02T05:26:31.767Z,18.70
2017-08-02T05:29:03.343Z,18.70
2017-08-02T05:31:35.920Z,18.80
2017-08-02T05:34:06.397Z,19.00
2017-08-02T05:36:36.542Z,19.20
2017-08-02T05:39:05.715Z,19.40
2017-08-02T05:41:37.234Z,19.70
2017-08-02T05:44:08.983Z,19.80
2017-08-02T05:46:41.078Z,19.80
2017-08-02T05:49:13.992Z,19.70
2017-08-02T05:51:43.185Z,19.80
2017-08-02T05:54:13.057Z,19.50
2017-08-02T05:56:44.547Z,19.50
2017-08-02T05:59:13.912Z,19.50
2017-08-02T06:01:42.216Z,19.60
2017-08-02T06:04:12.387Z,19.70
2017-08-02T06:06:40.852Z,19.80
2017-08-02T06:09:15.989Z,19.90
2017-08-02T06:11:44.431Z,19.90
2017-08-02T06:14:12.990Z,19.90
2017-08-02T06:16:41.393Z,19.90
2017-08-02T06:19:12.446Z,19.90
2017-08-02T06:21:44.226Z,19.80
2017-08-02T06:24:12.491Z,19.70
2017-08-02T06:26:40.896Z,19.50
2017-08-02T06:29:09.293Z,19.40
2017-08-02T06:31:37.722Z,19.40
2017-08-02T06:34:06.203Z,19.20
2017-08-02T06:36:34.663Z,19.20
2017-08-02T06:39:02.978Z,19.30
2017-08-02T06:41:31.620Z,19.30
2017-08-02T06:44:03.672Z,19.20
2017-08-02T06:46:33.243Z,19.20
2017-08-02T06:49:02.590Z,19.20
2017-08-02T06:51:31.417Z,19.10
2017-08-02T06:53:59.965Z,19.20
2017-08-02T06:56:29.442Z,19.20
2017-08-02T06:58:59.128Z,19.10
2017-08-02T07:01:27.722Z,19.10
2017-08-02T07:03:56.321Z,19.00
2017-08-02T07:06:25.696Z,19.00
2017-08-02T07:08:54.192Z,19.00
2017-08-02T07:11:22.811Z,18.90
2017-08-02T07:13:52.361Z,19.00
2017-08-02T07:16:20.863Z,19.20
2017-08-02T07:18:49.399Z,19.50
2017-08-02T07:21:19.313Z,19.90
2017-08-02T07:23:47.835Z,20.20
2017-08-02T07:26:17.254Z,20.60
2017-08-02T07:28:45.897Z,20.70
2017-08-02T07:31:14.366Z,21.00
2017-08-02T07:33:42.848Z,20.80
2017-08-02T07:36:11.461Z,20.60
2017-08-02T07:38:40.109Z,20.50
2017-08-02T07:41:08.543Z,20.60
2017-08-02T07:43:37.007Z,20.60
2017-08-02T07:46:05.585Z,20.70
2017-08-02T07:48:34.023Z,20.70
2017-08-02T07:51:03.491Z,20.50
2017-08-02T07:53:32.638Z,20.40
2017-08-02T07:56:01.858Z,20.30
2017-08-02T07:58:32.639Z,20.30
2017-08-02T08:01:01.862Z,20.20
2017-08-02T08:03:30.294Z,20.30
2017-08-02T08:05:59.846Z,20.30
2017-08-02T08:08:30.546Z,20.40
2017-08-02T08:10:59.708Z,20.40
2017-08-02T08:13:28.990Z,20.50
2017-08-02T08:15:57.747Z,20.40
2017-08-02T08:18:28.314Z,20.30
2017-08-02T08:20:57.948Z,20.40
2017-08-02T08:23:31.186Z,20.40
2017-08-02T08:25:59.884Z,20.40
2017-08-02T08:28:30.635Z,20.40
2017-08-02T08:31:01.453Z,20.40
2017-08-02T08:33:30.027Z,20.40
2017-08-02T08:35:59.346Z,20.30
2017-08-02T08:38:27.971Z,20.50
2017-08-02T08:40:58.181Z,20.60
2017-08-02T08:43:26.812Z,20.80
2017-08-02T08:45:55.481Z,20.90
2017-08-02T08:48:23.994Z,21.10
2017-08-02T08:50:54.515Z,21.30
2017-08-02T08:53:23.243Z,21.40
2017-08-02T08:55:52.274Z,21.50
2017-08-02T08:58:23.261Z,21.60
2017-08-02T09:00:51.886Z,21.50
2017-08-02T09:03:24.489Z,21.60
2017-08-02T09:05:55.332Z,21.80
2017-08-02T09:08:25.332Z,22.00
2017-08-02T09:10:54.926Z,22.00
2017-08-02T09:13:23.165Z,22.10
2017-08-02T09:15:52.718Z,22.00
2017-08-02T09:18:22.917Z,21.90
2017-08-02T09:20:52.163Z,21.80
2017-08-02T09:23:21.570Z,21.80
2017-08-02T09:25:55.209Z,21.90
2017-08-02T09:28:24.610Z,21.80
2017-08-02T09:31:01.954Z,21.70
2017-08-02T09:33:36.211Z,21.50
2017-08-02T09:36:04.614Z,21.70
2017-08-02T09:38:34.142Z,22.00
2017-08-02T09:41:02.606Z,22.10
2017-08-02T09:43:34.424Z,22.40
2017-08-02T09:46:02.884Z,22.50
2017-08-02T09:48:31.319Z,22.50
2017-08-02T09:50:59.784Z,22.60
2017-08-02T09:53:29.196Z,22.40
2017-08-02T09:56:03.325Z,22.50
2017-08-02T09:58:32.134Z,22.70
2017-08-02T10:01:02.356Z,22.80
2017-08-02T10:03:30.775Z,22.90
2017-08-02T10:05:59.203Z,23.20
2017-08-02T10:08:29.912Z,23.60
2017-08-02T10:10:58.358Z,23.80
2017-08-02T10:13:26.787Z,24.00
2017-08-02T10:15:59.093Z,23.80
2017-08-02T10:18:27.547Z,23.80
2017-08-02T10:20:56.025Z,24.00
2017-08-02T10:23:24.453Z,23.90
2017-08-02T10:25:52.878Z,23.90
2017-08-02T10:28:23.393Z,24.00
2017-08-02T10:31:02.413Z,24.20
2017-08-02T10:33:30.459Z,24.10
2017-08-02T10:38:52.034Z,24.20
2017-08-02T10:41:21.245Z,24.00
2017-08-02T10:44:01.190Z,23.90
2017-08-02T10:46:34.405Z,23.90
2017-08-02T10:49:05.879Z,23.80
2017-08-02T10:51:34.303Z,23.90
2017-08-02T10:54:02.719Z,23.90
2017-08-02T10:56:34.507Z,24.00
2017-08-02T10:59:02.921Z,24.10
2017-08-02T11:01:31.390Z,24.20
2017-08-02T11:04:01.629Z,24.10
2017-08-02T11:06:33.622Z,24.00
2017-08-02T11:09:02.790Z,23.90
2017-08-02T11:11:33.843Z,23.80
2017-08-02T11:14:05.318Z,23.80
2017-08-02T11:16:34.943Z,23.90
2017-08-02T11:19:04.336Z,24.00
2017-08-02T11:21:33.690Z,23.90
2017-08-02T11:24:02.086Z,23.80
2017-08-02T11:26:30.548Z,23.80
2017-08-02T11:28:58.999Z,23.70
2017-08-02T11:31:32.568Z,23.80
2017-08-02T11:34:01.004Z,23.70
2017-08-02T11:36:32.730Z,23.70
2017-08-02T11:39:10.435Z,23.60
2017-08-02T11:41:38.851Z,23.60
2017-08-02T11:44:12.691Z,23.50
2017-08-02T11:46:42.649Z,23.50
2017-08-02T11:49:14.368Z,23.60
2017-08-02T11:51:42.810Z,23.50
2017-08-02T11:54:11.321Z,23.50
2017-08-02T11:56:41.044Z,23.60
2017-08-02T11:59:09.457Z,23.80
2017-08-02T12:01:37.870Z,23.80
2017-08-02T12:04:08.001Z,23.80
2017-08-02T12:06:36.410Z,23.80
2017-08-02T12:09:10.577Z,23.90
2017-08-02T12:11:38.997Z,24.00
2017-08-02T12:14:11.339Z,24.00
2017-08-02T12:16:45.248Z,24.30
2017-08-02T12:19:13.730Z,24.60
2017-08-02T12:21:43.017Z,24.80
2017-08-02T12:24:12.612Z,24.70
2017-08-02T12:26:42.597Z,24.60
2017-08-02T12:29:13.946Z,24.70
2017-08-02T12:31:43.353Z,24.70
2017-08-02T12:34:12.859Z,24.60
2017-08-02T12:36:41.321Z,24.40
2017-08-02T12:39:12.630Z,24.30
2017-08-02T12:41:41.036Z,24.20
2017-08-02T12:44:09.495Z,24.20
2017-08-02T12:46:42.755Z,24.30
2017-08-02T12:49:12.847Z,24.20
2017-08-02T12:51:42.174Z,24.30
2017-08-02T12:54:12.154Z,24.40
2017-08-02T12:56:40.922Z,24.40
2017-08-02T12:59:15.052Z,24.50
2017-08-02T13:01:43.499Z,24.50
2017-08-02T13:04:11.634Z,24.60
2017-08-02T13:06:42.991Z,24.40
2017-08-02T13:09:11.419Z,24.20
2017-08-02T13:11:39.851Z,24.30
2017-08-02T13:14:09.165Z,24.40
2017-08-02T13:16:37.582Z,24.50
2017-08-02T13:19:11.777Z,24.50
2017-08-02T13:21:40.220Z,24.70
2017-08-02T13:24:08.615Z,24.70
2017-08-02T13:26:37.010Z,24.70
2017-08-02T13:29:14.267Z,24.60
2017-08-02T13:31:43.835Z,24.70
2017-08-02T13:34:13.454Z,24.70
2017-08-02T13:36:43.300Z,24.60
2017-08-02T13:39:11.708Z,24.40
2017-08-02T13:41:43.971Z,24.30
2017-08-02T13:44:12.376Z,24.30
2017-08-02T13:46:43.575Z,24.40
2017-08-02T13:49:11.976Z,24.50
2017-08-02T13:51:40.427Z,24.40
2017-08-02T13:54:08.889Z,24.70
2017-08-02T13:56:37.291Z,24.80
2017-08-02T13:59:05.694Z,24.90
2017-08-02T14:01:34.190Z,24.90
2017-08-02T14:04:14.051Z,24.90
2017-08-02T14:06:42.482Z,24.70
2017-08-02T14:09:10.898Z,24.60
2017-08-02T14:11:39.285Z,24.50
2017-08-02T14:14:07.706Z,24.30
2017-08-02T14:16:36.139Z,24.20
2017-08-02T14:19:04.610Z,24.30
2017-08-02T14:21:33.059Z,24.40
2017-08-02T14:24:01.508Z,24.30
2017-08-02T14:26:29.581Z,24.30
2017-08-02T14:29:06.894Z,24.30
2017-08-02T14:31:35.310Z,24.50
2017-08-02T14:34:03.715Z,24.50
2017-08-02T14:36:42.923Z,24.60
2017-08-02T14:39:11.335Z,24.70
2017-08-02T14:41:39.735Z,24.60
2017-08-02T14:44:12.252Z,24.60
2017-08-02T14:46:40.669Z,24.50
2017-08-02T14:49:14.855Z,24.50
2017-08-02T14:51:43.961Z,24.40
2017-08-02T14:54:12.380Z,24.30
2017-08-02T14:56:40.815Z,24.30
2017-08-02T14:59:15.054Z,24.40
2017-08-02T15:01:50.123Z,24.30
2017-08-02T15:07:03.706Z,24.20
2017-08-02T15:09:36.090Z,24.20
2017-08-02T15:12:13.654Z,24.20
2017-08-02T15:14:42.093Z,24.20
2017-08-02T15:17:10.479Z,24.10
2017-08-02T15:19:42.668Z,24.00
2017-08-02T15:22:11.095Z,23.90
2017-08-02T15:24:43.607Z,23.70
2017-08-02T15:27:12.092Z,23.60
2017-08-02T15:29:40.486Z,23.60
2017-08-02T15:32:13.874Z,23.60
2017-08-02T15:34:43.326Z,23.70
2017-08-02T15:37:13.715Z,23.90
2017-08-02T15:39:42.266Z,24.00
2017-08-02T15:42:15.918Z,24.00
2017-08-02T15:44:44.366Z,23.80
2017-08-02T15:47:12.920Z,23.60
2017-08-02T15:49:44.784Z,23.60
2017-08-02T15:52:13.217Z,23.20
2017-08-02T15:54:44.824Z,23.00
2017-08-02T15:57:13.305Z,22.90
2017-08-02T15:59:42.336Z,23.00
2017-08-02T16:02:14.601Z,23.00
2017-08-02T16:04:43.923Z,22.80
2017-08-02T16:07:12.361Z,22.80
2017-08-02T16:09:40.800Z,22.70
2017-08-02T16:12:09.221Z,22.80
2017-08-02T16:14:38.227Z,22.80
2017-08-02T16:17:06.646Z,22.90
2017-08-02T16:19:38.302Z,22.90
2017-08-02T16:22:13.816Z,22.80
2017-08-02T16:24:42.256Z,22.60
2017-08-02T16:27:10.681Z,22.70
2017-08-02T16:29:43.412Z,22.80
2017-08-02T16:32:12.494Z,22.80
2017-08-02T16:34:40.898Z,22.70
2017-08-02T16:37:09.353Z,22.70
2017-08-02T16:39:37.820Z,22.70
2017-08-02T16:42:06.982Z,22.60
2017-08-02T16:44:35.453Z,22.60
2017-08-02T16:47:14.964Z,22.60
2017-08-02T16:49:43.415Z,22.60
2017-08-02T16:52:11.866Z,22.40
2017-08-02T16:54:43.730Z,22.50
2017-08-02T16:57:13.599Z,22.60
2017-08-02T16:59:43.030Z,22.70
2017-08-02T17:02:11.476Z,22.70
2017-08-02T17:04:39.999Z,22.70
2017-08-02T17:07:08.423Z,22.70
2017-08-02T17:09:36.868Z,22.80
2017-08-02T17:12:05.276Z,22.90
2017-08-02T17:14:33.765Z,22.90
2017-08-02T17:17:02.002Z,22.80
2017-08-02T17:19:30.519Z,22.60
2017-08-02T17:21:59.064Z,22.60
2017-08-02T17:24:27.567Z,22.50
2017-08-02T17:26:56.116Z,22.20
2017-08-02T17:29:24.656Z,22.00
2017-08-02T17:31:53.183Z,22.00
2017-08-02T17:34:21.949Z,21.80
2017-08-02T17:36:50.516Z,21.60
2017-08-02T17:39:18.915Z,21.60
2017-08-02T17:41:47.404Z,21.50
2017-08-02T17:44:15.927Z,21.50
2017-08-02T17:46:44.344Z,21.50
2017-08-02T17:49:12.765Z,21.50
2017-08-02T17:51:41.279Z,21.40
2017-08-02T17:54:09.678Z,21.20
2017-08-02T17:56:38.183Z,20.90
2017-08-02T17:59:06.620Z,21.00
2017-08-02T18:01:35.048Z,21.10
2017-08-02T18:04:03.454Z,20.80
2017-08-02T18:06:32.018Z,20.60
2017-08-02T18:09:00.508Z,20.80
2017-08-02T18:11:29.111Z,20.80
2017-08-02T18:13:57.689Z,20.70
2017-08-02T18:16:26.250Z,20.50
2017-08-02T18:18:54.731Z,20.50
2017-08-02T18:21:23.151Z,20.30
2017-08-02T18:23:51.899Z,20.10
2017-08-02T18:26:20.298Z,19.90
2017-08-02T18:28:48.712Z,19.90
2017-08-02T18:31:17.125Z,19.80
2017-08-02T18:33:45.555Z,19.90
2017-08-02T18:36:15.669Z,20.00
2017-08-02T18:38:44.101Z,20.10
2017-08-02T18:41:12.534Z,19.80
2017-08-02T18:43:40.972Z,19.50
2017-08-02T18:46:09.365Z,19.60
2017-08-02T18:48:37.763Z,19.50
2017-08-02T18:51:06.186Z,19.30
2017-08-02T18:53:34.649Z,19.30
2017-08-02T18:56:03.116Z,19.40
2017-08-02T18:58:31.646Z,19.10
2017-08-02T19:00:59.354Z,19.30
2017-08-02T19:03:27.737Z,19.10
2017-08-02T19:05:56.186Z,19.10
2017-08-02T19:08:24.589Z,19.10
2017-08-02T19:10:53.039Z,19.20
2017-08-02T19:13:21.564Z,19.30
2017-08-02T19:15:49.970Z,19.40
2017-08-02T19:18:18.404Z,19.20
2017-08-02T19:20:46.867Z,19.00
2017-08-02T19:23:15.398Z,18.70
2017-08-02T19:25:43.843Z,18.40
2017-08-02T19:28:12.291Z,18.40
2017-08-02T19:30:40.847Z,18.30
2017-08-02T19:33:09.335Z,18.20
2017-08-02T19:35:37.775Z,18.10
2017-08-02T19:38:06.170Z,18.20
2017-08-02T19:40:34.635Z,18.40
2017-08-02T19:43:03.549Z,18.50
2017-08-02T19:45:32.023Z,18.50
2017-08-02T19:48:02.114Z,18.60
2017-08-02T19:50:31.405Z,18.60
2017-08-02T19:53:00.070Z,18.70
2017-08-02T19:55:28.589Z,18.70
2017-08-02T19:57:57.231Z,18.80
2017-08-02T20:00:25.736Z,18.80
2017-08-02T20:02:54.207Z,18.70
2017-08-02T20:05:22.675Z,18.70
2017-08-02T20:07:51.132Z,18.50
2017-08-02T20:10:19.615Z,18.40
2017-08-02T20:12:48.057Z,18.50
2017-08-02T20:15:16.451Z,18.50
2017-08-02T20:17:44.908Z,18.50
2017-08-02T20:20:13.421Z,18.40
2017-08-02T20:22:41.878Z,18.40
2017-08-02T20:25:10.317Z,18.40
2017-08-02T20:27:38.778Z,18.50
2017-08-02T20:30:06.856Z,18.50
2017-08-02T20:32:35.254Z,18.40
2017-08-02T20:35:03.743Z,18.30
2017-08-02T20:37:32.472Z,18.40
2017-08-02T20:40:00.871Z,18.40
2017-08-02T20:42:29.242Z,18.50
2017-08-02T20:44:57.648Z,18.50
2017-08-02T20:47:26.157Z,18.30
2017-08-02T20:49:54.649Z,18.30
2017-08-02T20:52:23.291Z,18.20
2017-08-02T20:54:51.874Z,18.30
2017-08-02T20:57:20.343Z,18.20
2017-08-02T20:59:48.771Z,18.30
2017-08-02T21:02:17.340Z,18.50
2017-08-02T21:04:45.895Z,18.50
2017-08-02T21:07:14.363Z,18.30
2017-08-02T21:09:42.867Z,18.40
2017-08-02T21:12:10.980Z,18.40
2017-08-02T21:14:39.458Z,18.40
2017-08-02T21:17:07.906Z,18.40
2017-08-02T21:19:36.348Z,18.40
2017-08-02T21:22:04.845Z,18.40
2017-08-02T21:24:33.269Z,18.50
2017-08-02T21:27:01.693Z,18.50
2017-08-02T21:29:30.140Z,18.50
2017-08-02T21:31:58.604Z,18.50
2017-08-02T21:34:27.077Z,18.50
2017-08-02T21:36:55.504Z,18.40
2017-08-02T21:39:23.981Z,18.40
2017-08-02T21:41:52.402Z,18.50
2017-08-02T21:44:20.866Z,18.50
2017-08-02T21:46:49.365Z,18.50
2017-08-02T21:49:17.799Z,18.60
2017-08-02T21:51:46.278Z,18.60
2017-08-02T21:54:14.436Z,18.60
2017-08-02T21:56:42.886Z,18.70
2017-08-02T21:59:11.421Z,18.70
2017-08-02T22:01:39.226Z,18.60
2017-08-02T22:04:07.746Z,18.70
2017-08-02T22:06:36.135Z,18.80
2017-08-02T22:09:03.937Z,19.00
2017-08-02T22:11:32.371Z,19.00
2017-08-02T22:14:00.772Z,19.00
2017-08-02T22:16:29.170Z,18.90
2017-08-02T22:18:58.303Z,18.80
2017-08-02T22:21:26.705Z,18.80
2017-08-02T22:23:55.119Z,18.90
2017-08-02T22:26:23.522Z,18.90
2017-08-02T22:28:52.077Z,18.90
2017-08-02T22:31:20.607Z,18.90
2017-08-02T22:33:49.144Z,18.90
2017-08-02T22:36:17.565Z,18.90
2017-08-02T22:38:46.071Z,19.00
2017-08-02T22:41:14.571Z,19.10
2017-08-02T22:43:43.096Z,19.10
2017-08-02T22:46:11.549Z,18.90
2017-08-02T22:48:39.977Z,18.80
2017-08-02T22:51:08.375Z,19.00
2017-08-02T22:53:36.856Z,19.00
2017-08-02T22:56:06.265Z,19.00
2017-08-02T22:58:34.680Z,18.90
2017-08-02T23:01:03.137Z,18.90
2017-08-02T23:03:31.544Z,19.00
2017-08-02T23:05:59.380Z,19.00
2017-08-02T23:08:27.838Z,19.00
2017-08-02T23:10:56.381Z,18.90
2017-08-02T23:13:24.977Z,19.00
2017-08-02T23:15:53.380Z,18.80
2017-08-02T23:18:21.854Z,18.90
2017-08-02T23:20:50.323Z,18.90
2017-08-02T23:23:18.773Z,18.80
2017-08-02T23:25:47.287Z,18.90
2017-08-02T23:28:15.857Z,19.00
2017-08-02T23:30:44.384Z,19.10
2017-08-02T23:33:12.820Z,19.00
2017-08-02T23:35:41.272Z,18.90
2017-08-02T23:38:09.686Z,18.80
2017-08-02T23:40:38.194Z,18.90
2017-08-02T23:43:06.731Z,18.90
2017-08-02T23:45:35.185Z,18.90
2017-08-02T23:48:03.596Z,18.90
2017-08-02T23:50:33.811Z,18.90
2017-08-02T23:53:02.493Z,19.00
2017-08-02T23:55:32.371Z,19.00
2017-08-02T23:58:00.785Z,18.90
